Time;durP1;ratioP1;P1;durP2;ratioP2;P2;SDS_P1;SDS_P2;PMS_P1;PMS_P2;Temp;Humidity;BMP_temperature;BMP_pressure;BME280_temperature;BME280_humidity;BME280_pressure;Samples;Min_cycle;Max_cycle;Signal;HPM_P1;HPM_P2
2021/05/27 00:02:01;;;;;;;1.38;0.60;;;11.70;81.80;;;;;;10036955;28;20412;-53
2021/05/27 00:06:52;;;;;;;0.90;0.70;;;11.60;81.70;;;;;;10037712;28;20090;-55
2021/05/27 00:11:42;;;;;;;1.70;0.70;;;11.60;81.80;;;;;;10037863;28;20443;-53
2021/05/27 00:16:33;;;;;;;2.97;0.70;;;11.60;82.00;;;;;;10040376;28;20044;-54
2021/05/27 00:21:25;;;;;;;2.35;0.80;;;11.50;82.20;;;;;;10046617;28;20025;-53
2021/05/27 00:26:15;;;;;;;1.73;0.98;;;11.60;82.00;;;;;;10047179;28;20043;-53
2021/05/27 00:31:07;;;;;;;1.40;0.70;;;11.70;81.90;;;;;;10046108;28;20061;-57
2021/05/27 00:35:58;;;;;;;1.27;0.93;;;11.70;82.00;;;;;;10046966;28;20033;-54
2021/05/27 00:40:49;;;;;;;1.20;0.88;;;11.60;82.20;;;;;;10045687;28;20037;-55
2021/05/27 00:45:39;;;;;;;0.70;0.70;;;11.60;82.10;;;;;;10045833;28;21601;-54
2021/05/27 00:50:30;;;;;;;1.75;1.10;;;11.50;82.50;;;;;;10046361;28;20541;-53
2021/05/27 00:55:24;;;;;;;0.68;0.50;;;11.50;82.60;;;;;;10045607;28;20056;-56
2021/05/27 01:00:18;;;;;;;1.15;0.80;;;11.50;83.10;;;;;;10045593;28;20033;-54
2021/05/27 01:05:11;;;;;;;1.50;0.95;;;11.50;82.50;;;;;;10044715;28;20159;-54
2021/05/27 01:10:06;;;;;;;1.48;0.60;;;11.40;82.60;;;;;;10045254;28;20601;-52
2021/05/27 01:20:08;;;;;;;1.23;0.80;;;11.50;82.60;;;;;;10044209;28;20685;-54
2021/05/27 01:24:59;;;;;;;0.70;0.55;;;11.60;82.40;;;;;;10043754;28;20028;-53
2021/05/27 01:29:51;;;;;;;1.63;0.68;;;11.40;82.90;;;;;;10042579;28;20033;-55
2021/05/27 01:34:42;;;;;;;1.38;0.77;;;11.50;82.80;;;;;;10044304;28;20025;-57
2021/05/27 01:39:33;;;;;;;0.85;0.77;;;11.40;82.70;;;;;;10043934;28;20343;-52
2021/05/27 01:44:24;;;;;;;0.95;0.70;;;11.40;82.60;;;;;;10041392;28;20044;-56
2021/05/27 01:49:14;;;;;;;1.92;0.90;;;11.50;82.50;;;;;;10040872;28;20849;-56
2021/05/27 01:54:05;;;;;;;1.23;0.60;;;11.50;82.50;;;;;;10042977;28;20044;-56
2021/05/27 01:59:05;;;;;;;1.52;0.88;;;11.50;82.50;;;;;;10042979;28;20204;-55
2021/05/27 02:03:56;;;;;;;1.17;0.73;;;11.40;82.90;;;;;;10042522;28;20311;-57
2021/05/27 02:13:56;;;;;;;1.58;0.80;;;11.30;82.80;;;;;;10043313;28;20106;-54
2021/05/27 02:18:47;;;;;;;1.95;0.93;;;11.30;82.80;;;;;;10042337;28;20075;-57
2021/05/27 02:23:37;;;;;;;1.67;0.77;;;11.30;82.90;;;;;;10041653;28;20098;-57
2021/05/27 02:28:28;;;;;;;1.77;1.63;;;11.30;82.70;;;;;;10042938;28;20126;-53
2021/05/27 02:33:19;;;;;;;1.35;0.88;;;11.30;82.60;;;;;;10039927;28;20728;-54
2021/05/27 02:38:10;;;;;;;0.95;0.85;;;11.30;82.70;;;;;;10041007;28;20040;-54
2021/05/27 02:43:00;;;;;;;0.90;0.80;;;11.20;82.90;;;;;;10040274;28;20037;-51
2021/05/27 02:47:51;;;;;;;0.77;0.63;;;11.20;82.90;;;;;;10039533;28;20200;-57
2021/05/27 02:52:42;;;;;;;1.17;0.88;;;11.20;82.90;;;;;;10040441;28;20544;-58
2021/05/27 02:57:32;;;;;;;1.17;0.85;;;11.20;82.90;;;;;;10039890;28;20025;-60
2021/05/27 03:02:23;;;;;;;2.60;1.80;;;11.20;83.00;;;;;;10040672;28;20048;-58
2021/05/27 03:07:14;;;;;;;2.00;1.25;;;11.20;83.20;;;;;;10038492;28;20041;-51
2021/05/27 03:12:05;;;;;;;0.90;0.80;;;11.20;83.20;;;;;;10039487;28;20052;-59
2021/05/27 03:16:56;;;;;;;1.25;1.10;;;11.20;83.10;;;;;;10040406;28;20036;-60
2021/05/27 03:21:47;;;;;;;3.00;1.08;;;11.10;83.10;;;;;;10038649;28;20561;-54
2021/05/27 03:26:38;;;;;;;1.30;1.02;;;11.10;83.10;;;;;;10039068;28;20040;-58
2021/05/27 03:31:29;;;;;;;1.10;1.00;;;11.00;83.10;;;;;;10038207;28;20049;-54
2021/05/27 03:36:19;;;;;;;1.73;1.50;;;11.00;83.20;;;;;;10038418;28;20037;-53
2021/05/27 03:41:10;;;;;;;0.88;0.77;;;11.00;83.30;;;;;;10038844;28;20063;-59
2021/05/27 03:46:02;;;;;;;1.42;1.02;;;10.90;83.50;;;;;;10037730;28;20095;-60
2021/05/27 03:50:52;;;;;;;1.83;1.02;;;10.90;83.60;;;;;;10038403;28;20037;-57
2021/05/27 03:55:43;;;;;;;2.08;1.60;;;11.00;83.50;;;;;;10039236;28;20719;-55
2021/05/27 04:00:45;;;;;;;2.03;1.65;;;11.00;83.40;;;;;;10037601;28;20090;-55
2021/05/27 04:10:46;;;;;;;1.55;1.25;;;10.90;83.40;;;;;;10038233;28;20055;-54
2021/05/27 04:15:38;;;;;;;2.20;1.40;;;11.00;83.60;;;;;;10037561;28;20890;-56
2021/05/27 04:20:33;;;;;;;1.85;1.27;;;10.90;83.90;;;;;;10037189;28;20096;-56
2021/05/27 04:25:25;;;;;;;2.95;1.30;;;10.90;83.70;;;;;;10037318;28;20567;-54
2021/05/27 04:30:18;;;;;;;2.42;1.60;;;10.90;83.90;;;;;;10036646;28;20057;-54
2021/05/27 04:35:09;;;;;;;1.73;1.38;;;11.00;83.90;;;;;;10037456;28;20029;-52
2021/05/27 04:40:00;;;;;;;2.25;1.67;;;11.00;83.80;;;;;;10034709;28;20033;-53
2021/05/27 04:44:50;;;;;;;1.70;1.35;;;11.00;83.90;;;;;;10036260;28;20033;-55
2021/05/27 04:49:41;;;;;;;2.80;1.50;;;11.10;84.20;;;;;;10037137;28;20037;-58
2021/05/27 04:54:32;;;;;;;1.80;1.40;;;11.10;84.40;;;;;;10037819;28;20673;-53
2021/05/27 04:59:23;;;;;;;3.47;1.50;;;11.10;84.20;;;;;;10035895;28;20025;-56
2021/05/27 05:04:13;;;;;;;4.18;2.00;;;11.20;84.40;;;;;;10040741;28;20606;-54
2021/05/27 05:09:04;;;;;;;4.50;2.08;;;11.20;84.40;;;;;;10042722;28;20049;-55
2021/05/27 05:13:55;;;;;;;4.85;1.85;;;11.20;84.60;;;;;;10042921;28;20110;-56
2021/05/27 05:18:46;;;;;;;3.30;2.30;;;11.20;85.00;;;;;;10043006;28;20980;-53
2021/05/27 05:23:37;;;;;;;3.05;1.58;;;11.30;84.90;;;;;;10043455;28;20340;-56
2021/05/27 05:28:27;;;;;;;2.13;1.42;;;11.30;84.90;;;;;;10044030;28;20087;-54
2021/05/27 05:33:18;;;;;;;3.00;2.00;;;11.40;85.10;;;;;;10044100;28;20041;-54
2021/05/27 05:38:09;;;;;;;2.50;1.42;;;11.50;84.90;;;;;;10040106;28;20075;-55
2021/05/27 05:43:00;;;;;;;2.97;1.95;;;11.60;84.90;;;;;;10042360;28;20348;-54
2021/05/27 05:47:52;;;;;;;1.98;1.55;;;11.70;84.50;;;;;;10042510;28;20037;-57
2021/05/27 05:52:43;;;;;;;2.42;1.63;;;11.80;84.30;;;;;;10041899;28;20053;-58
2021/05/27 05:57:33;;;;;;;2.53;1.42;;;11.80;84.40;;;;;;10042747;28;20036;-55
2021/05/27 06:02:24;;;;;;;2.97;2.03;;;12.00;84.10;;;;;;10041017;28;20847;-54
2021/05/27 06:07:15;;;;;;;4.63;1.73;;;12.00;83.80;;;;;;10042004;28;20048;-54
2021/05/27 06:12:06;;;;;;;2.65;1.30;;;12.20;83.60;;;;;;10041091;28;20044;-54
2021/05/27 06:16:57;;;;;;;2.67;1.70;;;12.30;83.40;;;;;;10041175;28;20044;-57
2021/05/27 06:21:48;;;;;;;2.47;1.35;;;12.40;82.80;;;;;;10041743;28;20517;-54
2021/05/27 06:26:38;;;;;;;2.92;2.22;;;12.60;82.60;;;;;;10040586;28;20037;-54
2021/05/27 06:31:30;;;;;;;2.03;1.55;;;12.60;82.20;;;;;;10040444;28;20311;-55
2021/05/27 06:36:21;;;;;;;3.55;1.40;;;12.40;82.30;;;;;;10041289;28;20040;-53
2021/05/27 06:41:15;;;;;;;3.25;1.17;;;12.40;81.80;;;;;;10040244;28;20037;-51
2021/05/27 06:46:06;;;;;;;2.25;1.13;;;12.40;81.60;;;;;;10006682;28;20036;-57
2021/05/27 06:50:56;;;;;;;5.10;1.48;;;12.60;80.90;;;;;;10025360;28;20048;-50
2021/05/27 06:55:48;;;;;;;2.45;1.38;;;12.70;80.30;;;;;;10028377;28;20110;-55
2021/05/27 07:00:40;;;;;;;1.88;1.20;;;12.90;79.80;;;;;;10028510;28;20119;-60
2021/05/27 07:05:31;;;;;;;2.53;1.20;;;13.10;79.50;;;;;;10025985;28;20860;-53
2021/05/27 07:10:22;;;;;;;5.32;1.25;;;13.20;78.60;;;;;;10027367;28;20048;-58
2021/05/27 07:15:14;;;;;;;2.63;1.27;;;13.50;77.40;;;;;;10025981;28;20984;-57
2021/05/27 07:20:07;;;;;;;1.73;1.52;;;13.70;77.30;;;;;;10026447;28;20052;-55
2021/05/27 07:24:57;;;;;;;2.67;1.40;;;13.90;76.80;;;;;;10026412;28;20230;-53
2021/05/27 07:29:49;;;;;;;1.83;1.10;;;14.10;76.20;;;;;;10025029;28;20250;-54
2021/05/27 07:34:40;;;;;;;1.92;1.20;;;14.20;75.60;;;;;;10024504;28;20542;-57
2021/05/27 07:39:31;;;;;;;2.28;1.30;;;14.10;75.10;;;;;;10025034;28;20091;-54
2021/05/27 07:44:21;;;;;;;2.28;1.40;;;14.10;75.20;;;;;;10025399;28;20523;-58
2021/05/27 07:49:12;;;;;;;1.73;1.08;;;14.20;74.10;;;;;;10028921;28;20609;-56
2021/05/27 07:54:03;;;;;;;1.42;1.05;;;14.20;73.20;;;;;;10024380;28;20345;-56
2021/05/27 07:58:54;;;;;;;1.63;0.98;;;14.00;72.50;;;;;;10025156;28;20599;-57
2021/05/27 08:03:45;;;;;;;1.30;1.02;;;14.10;72.00;;;;;;10025934;28;20044;-57
2021/05/27 08:08:36;;;;;;;1.77;1.13;;;14.60;70.70;;;;;;10024655;28;20668;-52
2021/05/27 08:13:26;;;;;;;1.50;1.02;;;15.00;69.60;;;;;;10026413;28;20822;-54
2021/05/27 08:18:17;;;;;;;2.50;1.27;;;14.90;69.40;;;;;;10024799;28;20253;-51
2021/05/27 08:23:08;;;;;;;1.98;0.98;;;14.60;69.20;;;;;;10026001;28;20033;-61
2021/05/27 08:27:59;;;;;;;2.13;1.02;;;14.70;69.00;;;;;;10027344;28;21454;-54
2021/05/27 08:32:50;;;;;;;3.15;1.13;;;14.50;68.30;;;;;;10024780;28;20610;-58
2021/05/27 08:37:40;;;;;;;1.33;0.98;;;14.60;67.40;;;;;;10028969;28;20029;-54
2021/05/27 08:42:32;;;;;;;1.42;0.77;;;14.90;66.30;;;;;;10033046;28;20458;-59
2021/05/27 08:47:23;;;;;;;4.03;1.20;;;15.30;65.10;;;;;;10029044;28;20612;-58
2021/05/27 08:52:14;;;;;;;1.10;0.90;;;15.20;65.00;;;;;;10029742;28;20059;-54
2021/05/27 08:57:05;;;;;;;1.35;0.93;;;15.10;64.70;;;;;;10029181;28;20552;-54
2021/05/27 09:02:05;;;;;;;1.75;0.82;;;15.10;64.40;;;;;;10029979;28;20052;-53
2021/05/27 09:06:56;;;;;;;1.77;1.27;;;15.10;63.60;;;;;;10029546;28;20076;-53
2021/05/27 09:11:48;;;;;;;1.73;1.30;;;15.20;63.30;;;;;;10029775;28;20529;-56
2021/05/27 09:16:58;;;;;;;2.38;0.95;;;15.50;62.80;;;;;;10031380;28;20163;-52
2021/05/27 09:21:50;;;;;;;1.58;1.00;;;15.80;61.00;;;;;;10030337;28;20394;-52
2021/05/27 09:26:50;;;;;;;1.63;0.80;;;15.90;61.30;;;;;;10030260;28;20644;-58
2021/05/27 09:32:01;;;;;;;3.25;1.10;;;16.40;60.30;;;;;;10028869;28;20041;-52
2021/05/27 09:36:59;;;;;;;1.75;0.75;;;16.50;58.50;;;;;;10030404;28;20033;-55
2021/05/27 09:41:59;;;;;;;4.45;0.75;;;16.30;59.50;;;;;;10029746;28;23665;-59
2021/05/27 09:46:55;;;;;;;2.33;0.77;;;16.20;59.10;;;;;;10029641;28;20411;-55
2021/05/27 09:51:47;;;;;;;1.17;0.82;;;16.20;58.80;;;;;;10029887;28;20270;-60
2021/05/27 09:56:42;;;;;;;0.85;0.80;;;16.30;58.10;;;;;;10030391;28;20515;-59
2021/05/27 10:01:32;;;;;;;1.80;1.23;;;16.30;57.50;;;;;;10030510;28;20052;-58
2021/05/27 10:06:31;;;;;;;2.95;0.70;;;16.30;57.40;;;;;;10021359;28;20136;-60
2021/05/27 10:11:25;;;;;;;1.75;0.70;;;16.40;56.90;;;;;;10025196;28;20187;-66
2021/05/27 10:16:23;;;;;;;1.20;1.00;;;16.50;56.20;;;;;;10028530;28;20763;-58
2021/05/27 10:21:14;;;;;;;2.67;0.80;;;17.10;56.00;;;;;;10025398;28;20045;-55
2021/05/27 10:26:05;;;;;;;1.13;0.70;;;17.50;55.20;;;;;;10028448;28;20121;-60
2021/05/27 10:30:57;;;;;;;3.13;1.55;;;17.50;55.00;;;;;;10027444;28;20413;-51
2021/05/27 10:35:53;;;;;;;1.02;0.82;;;17.30;54.80;;;;;;10028302;28;20415;-53
2021/05/27 10:40:49;;;;;;;0.85;0.60;;;17.60;54.40;;;;;;10026335;28;20171;-56
2021/05/27 10:46:01;;;;;;;2.35;0.70;;;17.50;54.00;;;;;;10025353;28;20037;-57
2021/05/27 10:51:27;;;;;;;1.60;1.15;;;17.00;52.90;;;;;;10029577;28;20068;-56
2021/05/27 10:56:39;;;;;;;2.65;0.90;;;16.90;52.80;;;;;;10027802;28;20025;-56
2021/05/27 11:01:33;;;;;;;2.63;0.90;;;17.20;53.10;;;;;;10028419;28;20110;-56
2021/05/27 11:06:41;;;;;;;0.73;0.70;;;17.30;52.80;;;;;;10028092;28;20049;-59
2021/05/27 11:12:03;;;;;;;2.05;0.80;;;16.90;52.70;;;;;;10028598;28;20103;-60
2021/05/27 11:17:36;;;;;;;3.17;1.77;;;16.50;53.40;;;;;;10026556;28;20503;-55
2021/05/27 11:27:28;;;;;;;0.90;0.80;;;16.50;52.60;;;;;;10027265;28;20379;-55
2021/05/27 11:32:34;;;;;;;1.35;0.80;;;16.80;52.60;;;;;;10026191;28;20049;-60
2021/05/27 11:37:25;;;;;;;2.83;0.77;;;17.10;50.70;;;;;;10025821;28;20474;-57
2021/05/27 11:42:16;;;;;;;0.85;0.52;;;17.20;51.70;;;;;;10024695;28;20492;-56
2021/05/27 11:47:06;;;;;;;1.27;0.93;;;17.30;51.70;;;;;;10028062;28;20068;-54
2021/05/27 11:51:57;;;;;;;0.90;0.60;;;17.40;51.40;;;;;;10024834;28;20057;-59
2021/05/27 11:56:52;;;;;;;1.40;0.80;;;17.30;51.50;;;;;;10026307;28;20132;-58
2021/05/27 12:01:44;;;;;;;2.67;0.90;;;17.30;51.60;;;;;;10023856;28;20032;-56
2021/05/27 12:07:01;;;;;;;1.10;0.80;;;17.30;51.30;;;;;;10024467;28;20044;-56
2021/05/27 12:11:53;;;;;;;1.63;0.60;;;17.20;50.40;;;;;;10031071;28;20044;-62
2021/05/27 12:16:44;;;;;;;1.00;0.52;;;17.30;51.20;;;;;;10036458;28;20029;-59
2021/05/27 12:21:35;;;;;;;0.95;0.50;;;17.50;50.80;;;;;;10038544;28;20033;-58
2021/05/27 12:26:27;;;;;;;2.05;0.98;;;17.60;50.70;;;;;;10038566;28;20031;-58
2021/05/27 12:31:18;;;;;;;1.05;0.90;;;17.60;50.60;;;;;;10037045;28;20048;-57
2021/05/27 12:36:10;;;;;;;1.67;0.98;;;17.80;50.80;;;;;;10039256;28;20041;-58
2021/05/27 12:41:04;;;;;;;1.23;1.13;;;17.80;50.70;;;;;;10037271;28;21750;-58
2021/05/27 12:45:55;;;;;;;3.67;1.63;;;17.80;51.00;;;;;;10038363;28;20033;-55
2021/05/27 12:51:04;;;;;;;1.17;0.70;;;17.90;51.10;;;;;;10037459;28;20044;-58
2021/05/27 12:55:57;;;;;;;1.23;0.70;;;17.80;51.30;;;;;;10038679;28;20079;-59
2021/05/27 13:00:49;;;;;;;3.90;0.95;;;17.60;51.50;;;;;;10037759;28;20067;-58
2021/05/27 13:05:40;;;;;;;1.73;0.93;;;17.50;52.30;;;;;;10028567;28;21355;-59
2021/05/27 13:10:33;;;;;;;2.28;0.73;;;17.80;51.30;;;;;;10037588;28;20604;-57
2021/05/27 13:15:24;;;;;;;1.10;0.70;;;18.30;50.90;;;;;;10035463;28;20043;-57
2021/05/27 13:20:15;;;;;;;1.20;0.90;;;18.10;51.10;;;;;;10037588;28;20025;-56
2021/05/27 13:25:13;;;;;;;4.50;2.15;;;18.10;51.20;;;;;;10032069;28;20089;-58
2021/05/27 13:30:08;;;;;;;2.70;1.13;;;18.50;50.90;;;;;;10030277;28;20125;-57
2021/05/27 13:35:01;;;;;;;2.65;1.13;;;18.70;50.50;;;;;;10032545;28;20543;-56
2021/05/27 13:39:52;;;;;;;1.95;1.02;;;18.60;50.80;;;;;;10031260;28;20463;-55
2021/05/27 13:44:43;;;;;;;1.85;1.30;;;18.20;51.20;;;;;;10030952;28;20565;-54
2021/05/27 13:49:34;;;;;;;1.13;0.88;;;18.20;51.50;;;;;;10030577;28;20048;-57
2021/05/27 13:54:25;;;;;;;1.65;1.10;;;18.00;51.70;;;;;;10029143;28;20048;-56
2021/05/27 13:59:16;;;;;;;1.58;0.93;;;17.70;51.90;;;;;;10030726;28;20883;-57
2021/05/27 14:04:08;;;;;;;3.40;1.00;;;17.60;51.80;;;;;;10028908;28;20633;-57
2021/05/27 14:09:00;;;;;;;2.20;1.50;;;17.90;51.70;;;;;;10028617;28;20041;-56
2021/05/27 14:13:51;;;;;;;3.97;0.98;;;18.60;50.80;;;;;;10029239;28;20045;-58
2021/05/27 14:18:41;;;;;;;1.35;0.80;;;18.90;50.30;;;;;;10029050;28;20036;-57
2021/05/27 14:23:32;;;;;;;1.95;0.80;;;19.10;50.00;;;;;;10028513;28;20956;-59
2021/05/27 14:28:23;;;;;;;0.90;0.80;;;19.00;49.90;;;;;;10028474;28;20102;-54
2021/05/27 14:33:14;;;;;;;1.80;1.13;;;18.50;50.60;;;;;;10026479;28;20094;-53
2021/05/27 14:38:04;;;;;;;1.13;0.85;;;18.20;51.20;;;;;;10027566;28;20123;-56
2021/05/27 14:42:55;;;;;;;1.83;1.23;;;18.10;51.30;;;;;;10026811;28;20071;-58
2021/05/27 14:47:46;;;;;;;1.80;1.38;;;18.70;50.50;;;;;;10020471;28;20070;-52
2021/05/27 14:52:37;;;;;;;2.67;1.20;;;19.60;49.30;;;;;;10039423;28;20704;-55
2021/05/27 14:57:28;;;;;;;2.30;0.98;;;20.80;47.90;;;;;;10038951;28;20696;-58
2021/05/27 15:02:19;;;;;;;1.70;1.50;;;22.30;46.70;;;;;;10039347;28;20793;-57
2021/05/27 15:07:10;;;;;;;1.27;1.02;;;22.60;45.70;;;;;;10038558;28;20084;-70
2021/05/27 15:12:01;;;;;;;1.80;1.55;;;21.40;47.70;;;;;;10000194;28;20048;-57
2021/05/27 15:16:51;;;;;;;1.83;1.20;;;20.50;48.30;;;;;;10023921;28;20032;-57
2021/05/27 15:21:43;;;;;;;1.27;1.17;;;19.80;48.90;;;;;;10026463;28;20032;-59
2021/05/27 15:26:33;;;;;;;2.05;1.10;;;19.50;48.80;;;;;;10007924;28;20032;-58
2021/05/27 15:31:24;;;;;;;1.98;0.98;;;19.70;48.00;;;;;;10023210;28;20722;-57
2021/05/27 15:36:15;;;;;;;3.38;1.00;;;20.30;46.80;;;;;;10027274;28;20037;-58
2021/05/27 15:41:06;;;;;;;1.25;0.90;;;21.30;45.80;;;;;;10026504;28;20088;-61
2021/05/27 15:45:59;;;;;;;1.55;1.15;;;21.50;45.30;;;;;;10024127;28;20535;-58
2021/05/27 15:50:50;;;;;;;2.28;0.77;;;21.80;45.30;;;;;;10025899;28;20114;-60
2021/05/27 15:55:42;;;;;;;2.30;1.05;;;23.30;43.00;;;;;;10023932;28;20396;-58
2021/05/27 16:00:32;;;;;;;2.00;1.38;;;22.40;44.60;;;;;;10007110;28;20053;-59
2021/05/27 16:05:23;;;;;;;1.40;0.90;;;24.10;42.30;;;;;;10023716;28;20561;-58
2021/05/27 16:10:15;;;;;;;1.77;1.02;;;25.90;39.50;;;;;;10025296;28;20036;-58
2021/05/27 16:15:07;;;;;;;0.82;0.70;;;23.50;42.20;;;;;;10025400;28;20061;-57
2021/05/27 16:19:58;;;;;;;0.68;0.68;;;26.50;38.90;;;;;;10025451;28;20033;-57
2021/05/27 16:24:49;;;;;;;0.70;0.60;;;23.60;40.80;;;;;;10025067;28;20427;-68
2021/05/27 16:29:39;;;;;;;1.15;0.80;;;21.20;44.10;;;;;;10024053;28;20386;-58
2021/05/27 16:34:37;;;;;;;2.70;1.05;;;20.20;45.10;;;;;;10024532;28;20041;-58
2021/05/27 16:39:28;;;;;;;1.92;0.73;;;19.80;45.10;;;;;;10023300;28;20029;-57
2021/05/27 16:44:19;;;;;;;1.67;1.00;;;19.60;44.80;;;;;;10023201;28;20025;-65
2021/05/27 16:49:09;;;;;;;0.75;0.65;;;19.50;44.70;;;;;;10021279;28;20094;-59
2021/05/27 16:54:01;;;;;;;1.00;0.80;;;19.40;44.70;;;;;;10023383;28;20090;-58
2021/05/27 16:58:52;;;;;;;6.07;1.30;;;19.40;44.80;;;;;;10027389;28;20029;-58
2021/05/27 17:03:42;;;;;;;1.42;0.85;;;19.30;45.10;;;;;;10030956;28;20596;-55
2021/05/27 17:08:33;;;;;;;1.13;0.85;;;19.20;45.30;;;;;;10030254;28;20056;-57
2021/05/27 17:13:25;;;;;;;1.38;1.00;;;19.10;45.40;;;;;;10030857;28;20131;-63
2021/05/27 17:18:16;;;;;;;1.40;1.10;;;18.90;45.60;;;;;;10030357;28;20061;-61
2021/05/27 17:23:07;;;;;;;3.05;1.65;;;18.70;46.00;;;;;;10030725;28;20051;-57
2021/05/27 17:27:58;;;;;;;3.00;1.50;;;18.70;46.20;;;;;;10029825;28;20060;-59
2021/05/27 17:32:50;;;;;;;1.17;0.80;;;18.60;46.30;;;;;;10030202;28;20048;-52
2021/05/27 17:37:42;;;;;;;3.00;1.10;;;18.60;46.20;;;;;;10029569;28;20454;-55
2021/05/27 17:42:33;;;;;;;2.38;1.10;;;18.60;46.20;;;;;;10030464;28;20037;-51
2021/05/27 17:47:24;;;;;;;1.73;0.90;;;18.40;46.50;;;;;;10030793;28;20048;-55
2021/05/27 17:52:15;;;;;;;1.50;0.95;;;18.30;46.50;;;;;;10027640;28;20051;-56
2021/05/27 17:57:06;;;;;;;1.02;0.80;;;18.20;46.60;;;;;;10029601;28;20639;-53
2021/05/27 18:01:57;;;;;;;2.40;1.02;;;18.10;46.70;;;;;;10030151;28;20438;-54
2021/05/27 18:06:47;;;;;;;1.40;1.15;;;18.10;46.60;;;;;;10029966;28;20073;-54
2021/05/27 18:11:38;;;;;;;1.20;0.90;;;18.00;46.60;;;;;;10029573;28;20329;-56
2021/05/27 18:16:29;;;;;;;1.00;0.90;;;18.00;46.70;;;;;;10029071;28;20063;-57
2021/05/27 18:21:20;;;;;;;1.42;1.33;;;17.90;46.70;;;;;;10029318;28;20103;-59
2021/05/27 18:26:11;;;;;;;1.25;1.00;;;17.90;46.70;;;;;;10027372;28;20037;-51
2021/05/27 18:31:02;;;;;;;1.50;0.90;;;18.00;46.90;;;;;;10027300;28;20563;-53
2021/05/27 18:35:54;;;;;;;1.75;0.93;;;18.00;46.70;;;;;;10029344;28;20025;-56
2021/05/27 18:40:45;;;;;;;2.70;1.08;;;18.00;46.90;;;;;;10003776;28;20124;-56
2021/05/27 18:45:38;;;;;;;2.55;1.20;;;18.00;47.00;;;;;;10028233;28;20396;-58
2021/05/27 18:50:28;;;;;;;1.52;1.27;;;18.10;46.90;;;;;;10040368;28;20296;-60
2021/05/27 18:55:20;;;;;;;1.83;1.05;;;18.00;47.20;;;;;;10040226;28;20079;-57
2021/05/27 19:00:12;;;;;;;1.25;1.10;;;17.80;47.10;;;;;;10040784;28;20044;-60
2021/05/27 19:05:03;;;;;;;2.08;1.20;;;17.60;47.40;;;;;;10040175;28;20571;-57
2021/05/27 19:09:54;;;;;;;1.92;0.90;;;17.50;47.50;;;;;;10041461;28;20082;-54
2021/05/27 19:14:44;;;;;;;1.45;0.98;;;17.40;47.70;;;;;;10040524;28;20037;-56
2021/05/27 19:19:35;;;;;;;1.83;1.48;;;17.30;47.80;;;;;;10041616;28;20441;-59
2021/05/27 19:24:27;;;;;;;2.53;1.60;;;17.20;47.90;;;;;;10041330;28;20029;-56
2021/05/27 19:29:17;;;;;;;3.13;1.10;;;17.10;48.10;;;;;;10041502;28;20567;-57
2021/05/27 19:34:08;;;;;;;1.50;1.30;;;17.00;48.20;;;;;;10040161;28;20033;-56
2021/05/27 19:38:59;;;;;;;1.70;1.30;;;17.00;48.30;;;;;;10039976;28;20755;-54
2021/05/27 19:43:50;;;;;;;4.07;1.50;;;17.00;48.50;;;;;;10040796;28;20040;-56
2021/05/27 19:48:41;;;;;;;1.48;1.10;;;17.00;48.50;;;;;;10040068;28;20025;-55
2021/05/27 19:53:32;;;;;;;1.30;0.90;;;17.00;48.50;;;;;;10039581;28;20037;-55
2021/05/27 19:58:23;;;;;;;2.38;1.92;;;17.00;48.80;;;;;;10039111;28;20033;-51
2021/05/27 20:03:14;;;;;;;4.93;2.28;;;16.90;48.90;;;;;;10040455;28;20048;-54
2021/05/27 20:08:06;;;;;;;2.15;1.58;;;16.90;49.10;;;;;;10038335;28;20061;-51
2021/05/27 20:12:57;;;;;;;3.13;1.80;;;16.80;49.20;;;;;;10038950;28;20048;-57
2021/05/27 20:17:47;;;;;;;3.15;1.85;;;16.90;49.50;;;;;;10040025;28;20029;-57
2021/05/27 20:22:40;;;;;;;4.30;1.67;;;17.00;49.60;;;;;;10036091;28;20358;-59
2021/05/27 20:27:30;;;;;;;4.00;1.95;;;17.00;49.60;;;;;;10038084;28;20039;-52
2021/05/27 20:32:21;;;;;;;3.05;1.35;;;17.00;49.90;;;;;;10037698;28;20051;-52
2021/05/27 20:37:12;;;;;;;2.20;1.50;;;16.90;50.10;;;;;;10045991;28;20511;-57
2021/05/27 20:42:05;;;;;;;2.35;1.10;;;16.90;50.20;;;;;;10042382;28;20029;-53
2021/05/27 20:46:55;;;;;;;1.40;1.23;;;16.80;50.40;;;;;;10045966;28;20029;-54
2021/05/27 20:51:46;;;;;;;3.83;1.90;;;16.80;50.50;;;;;;10045946;28;20308;-53
2021/05/27 20:56:37;;;;;;;1.33;0.95;;;16.80;50.60;;;;;;10043972;28;20033;-55
2021/05/27 21:01:28;;;;;;;1.75;1.10;;;16.70;50.80;;;;;;10044624;28;20021;-54
2021/05/27 21:06:20;;;;;;;2.20;1.10;;;16.60;50.90;;;;;;10044359;28;20052;-54
2021/05/27 21:11:11;;;;;;;1.95;1.02;;;16.50;51.10;;;;;;10044372;28;20093;-51
2021/05/27 21:16:02;;;;;;;2.80;1.42;;;16.40;51.30;;;;;;10043791;28;20065;-55
2021/05/27 21:20:53;;;;;;;2.13;1.17;;;16.40;51.50;;;;;;10044948;28;20040;-54
2021/05/27 21:25:44;;;;;;;2.80;1.52;;;16.30;51.60;;;;;;10042770;28;20029;-52
2021/05/27 21:30:36;;;;;;;3.50;2.00;;;16.30;51.80;;;;;;10044107;28;20048;-55
2021/05/27 21:35:27;;;;;;;3.30;1.58;;;16.20;52.00;;;;;;10043504;28;20877;-51
2021/05/27 21:40:18;;;;;;;1.98;1.45;;;16.10;52.10;;;;;;10043223;28;20120;-52
2021/05/27 21:45:10;;;;;;;2.35;1.40;;;16.00;52.40;;;;;;10043300;28;20036;-52
2021/05/27 21:50:00;;;;;;;4.80;1.90;;;16.00;52.60;;;;;;10043044;28;20040;-53
2021/05/27 21:54:51;;;;;;;4.13;2.00;;;15.90;52.80;;;;;;10043010;28;20035;-55
2021/05/27 21:59:42;;;;;;;2.45;1.40;;;15.80;53.00;;;;;;10042009;28;20616;-53
2021/05/27 22:04:33;;;;;;;5.00;1.92;;;15.80;53.20;;;;;;10042046;28;20045;-53
2021/05/27 22:09:24;;;;;;;2.83;1.70;;;15.80;53.20;;;;;;10039826;28;20554;-52
2021/05/27 22:14:15;;;;;;;2.20;1.75;;;15.70;53.50;;;;;;10042451;28;20576;-53
2021/05/27 22:19:10;;;;;;;2.92;1.73;;;15.70;53.80;;;;;;10041360;28;20044;-58
2021/05/27 22:24:01;;;;;;;2.67;1.80;;;15.60;53.90;;;;;;10041573;28;20048;-54
2021/05/27 22:28:52;;;;;;;3.67;1.65;;;15.50;54.20;;;;;;10041849;28;20107;-53
2021/05/27 22:33:43;;;;;;;2.20;1.33;;;15.30;54.60;;;;;;10040928;28;20037;-55
2021/05/27 22:38:33;;;;;;;4.95;1.60;;;15.20;55.00;;;;;;10041023;28;20560;-53
2021/05/27 22:43:24;;;;;;;4.07;2.50;;;15.00;55.50;;;;;;10038605;28;20794;-53
2021/05/27 22:48:15;;;;;;;2.63;2.13;;;15.10;55.70;;;;;;10041180;28;20144;-54
2021/05/27 22:53:06;;;;;;;2.65;1.42;;;15.10;55.90;;;;;;10039918;28;20151;-52
2021/05/27 22:57:56;;;;;;;3.30;1.75;;;15.00;56.20;;;;;;10040060;28;20028;-52
2021/05/27 23:02:47;;;;;;;2.53;1.95;;;14.90;56.70;;;;;;10039693;28;20622;-53
2021/05/27 23:07:38;;;;;;;4.53;2.25;;;14.90;56.90;;;;;;10039891;28;20055;-53
2021/05/27 23:12:29;;;;;;;4.97;2.85;;;14.90;57.20;;;;;;10039576;28;20045;-53
2021/05/27 23:17:20;;;;;;;4.88;2.78;;;15.00;57.30;;;;;;10040325;28;20595;-52
2021/05/27 23:22:10;;;;;;;7.18;2.90;;;15.00;57.60;;;;;;10038073;28;20036;-58
2021/05/27 23:27:01;;;;;;;5.30;2.33;;;15.20;57.60;;;;;;10039398;28;20519;-50
2021/05/27 23:31:52;;;;;;;2.83;1.90;;;15.10;57.80;;;;;;10040414;28;20049;-54
2021/05/27 23:36:43;;;;;;;2.03;1.70;;;15.10;58.00;;;;;;10037600;28;20562;-51
2021/05/27 23:41:34;;;;;;;2.15;1.58;;;14.90;58.50;;;;;;10038312;28;20443;-51
2021/05/27 23:46:25;;;;;;;2.40;1.80;;;15.00;58.50;;;;;;10038871;28;20446;-51
2021/05/27 23:51:16;;;;;;;2.60;2.00;;;14.80;58.80;;;;;;10038496;28;20087;-50
2021/05/27 23:56:06;;;;;;;8.05;2.38;;;14.80;59.30;;;;;;10038699;28;20041;-53
